Time;durP1;ratioP1;P1;durP2;ratioP2;P2;SDS_P1;SDS_P2;PMS_P1;PMS_P2;Temp;Humidity;BMP_temperature;BMP_pressure;BME280_temperature;BME280_humidity;BME280_pressure;Samples;Min_cycle;Max_cycle;Signal;HPM_P1;HPM_P2
2023/10/04 00:02:10;;;;;;;6.88;6.13;;;;;;;24.58;52.28;101610.78;5027970;28;20052;-65
2023/10/04 00:04:39;;;;;;;7.00;6.07;;;;;;;24.58;52.07;101608.09;5033079;28;20049;-65
2023/10/04 00:07:07;;;;;;;7.32;5.78;;;;;;;24.58;52.13;101613.50;5032420;28;20038;-65
2023/10/04 00:09:34;;;;;;;6.68;6.03;;;;;;;24.59;51.86;101608.94;5033204;28;20045;-61
2023/10/04 00:12:03;;;;;;;6.93;6.05;;;;;;;24.59;51.99;101611.66;5021777;28;20045;-61
2023/10/04 00:14:30;;;;;;;7.57;5.95;;;;;;;24.57;52.08;101611.81;5032953;28;20046;-61
2023/10/04 00:16:59;;;;;;;6.50;5.88;;;;;;;24.58;51.76;101599.13;5032774;28;20053;-61
2023/10/04 00:19:32;;;;;;;6.20;5.30;;;;;;;24.58;51.76;101607.25;5033163;28;20054;-65
2023/10/04 00:21:59;;;;;;;6.43;5.82;;;;;;;24.57;51.83;101602.84;5033094;28;20054;-65
2023/10/04 00:24:27;;;;;;;7.38;5.70;;;;;;;24.58;51.89;101601.81;5032828;28;20045;-65
2023/10/04 00:26:54;;;;;;;7.88;6.05;;;;;;;24.56;51.94;101607.41;5033010;28;20045;-65
2023/10/04 00:29:22;;;;;;;6.43;5.65;;;;;;;24.56;52.05;101607.41;5032890;28;20049;-61
2023/10/04 00:31:49;;;;;;;7.18;6.30;;;;;;;24.56;52.09;101604.69;5033180;28;20064;-61
2023/10/04 00:34:16;;;;;;;8.27;6.20;;;;;;;24.56;52.09;101609.25;5027446;28;20057;-60
2023/10/04 00:36:44;;;;;;;7.13;5.68;;;;;;;24.56;51.83;101612.81;5025553;28;20046;-61
2023/10/04 00:39:13;;;;;;;6.50;5.90;;;;;;;24.56;51.88;101618.22;5024517;28;20515;-61
2023/10/04 00:41:42;;;;;;;6.43;5.78;;;;;;;24.56;51.81;101617.38;5027844;28;20053;-61
2023/10/04 00:44:10;;;;;;;5.90;5.35;;;;;;;24.55;51.96;101619.25;5027248;28;20381;-62
2023/10/04 00:46:41;;;;;;;5.97;5.43;;;;;;;24.55;51.87;101611.13;5013434;28;20042;-61
2023/10/04 00:49:10;;;;;;;6.18;5.57;;;;;;;24.56;51.71;101615.53;5026018;28;20057;-65
2023/10/04 00:51:38;;;;;;;7.70;5.88;;;;;;;24.57;51.54;101613.66;5026435;28;20420;-65
2023/10/04 00:54:16;;;;;;;7.97;6.22;;;;;;;24.55;51.52;101608.41;5027987;28;20615;-65
2023/10/04 00:56:46;;;;;;;6.22;5.63;;;;;;;24.55;51.88;101600.28;5021452;28;20054;-65
2023/10/04 00:59:15;;;;;;;6.22;5.63;;;;;;;24.55;51.89;101605.69;5028041;28;20045;-61
2023/10/04 01:01:43;;;;;;;6.55;5.95;;;;;;;24.55;51.87;101603.00;5027618;28;20048;-61
2023/10/04 01:04:11;;;;;;;6.68;5.60;;;;;;;24.54;51.68;101597.72;5026444;28;20049;-61
2023/10/04 01:06:39;;;;;;;6.63;5.30;;;;;;;24.54;51.97;101590.44;5024282;28;20046;-61
2023/10/04 01:09:08;;;;;;;6.40;5.80;;;;;;;24.54;51.96;101589.59;5017476;28;20488;-61
2023/10/04 01:11:44;;;;;;;6.53;5.45;;;;;;;24.54;51.76;101582.31;5026229;28;20057;-61
2023/10/04 01:14:23;;;;;;;7.38;5.68;;;;;;;24.54;51.89;101579.59;5023723;28;20061;-61
2023/10/04 01:16:54;;;;;;;5.43;4.93;;;;;;;24.54;51.85;101590.44;5025768;28;20041;-61
2023/10/04 01:19:22;;;;;;;6.03;5.38;;;;;;;24.54;51.56;101581.47;5027059;28;20061;-61
2023/10/04 01:21:50;;;;;;;6.25;5.65;;;;;;;24.54;51.93;101586.88;5030687;28;20056;-61
2023/10/04 01:24:17;;;;;;;6.50;5.80;;;;;;;24.54;51.99;101586.88;5026694;28;20519;-61
2023/10/04 01:26:45;;;;;;;6.05;5.43;;;;;;;24.54;51.83;101589.59;5029934;28;20045;-61
2023/10/04 01:29:15;;;;;;;6.97;6.10;;;;;;;24.55;52.03;101594.00;5029463;28;20080;-61
2023/10/04 01:31:43;;;;;;;6.20;5.32;;;;;;;24.54;51.92;101595.00;5030604;28;20076;-61
2023/10/04 01:34:13;;;;;;;6.88;6.20;;;;;;;24.53;51.51;101602.28;5032326;28;20045;-61
2023/10/04 01:36:41;;;;;;;6.53;5.70;;;;;;;24.53;51.68;101596.84;5026049;28;20071;-61
2023/10/04 01:39:16;;;;;;;7.72;5.45;;;;;;;24.54;51.68;101603.13;5036484;28;20049;-61
2023/10/04 01:41:43;;;;;;;5.53;5.00;;;;;;;24.53;51.83;101602.28;5035007;28;20057;-61
2023/10/04 01:44:11;;;;;;;6.10;5.20;;;;;;;24.53;51.69;101602.28;5034307;28;20053;-61
2023/10/04 01:46:39;;;;;;;6.55;5.85;;;;;;;24.53;51.73;101607.69;5025019;28;20065;-61
2023/10/04 01:49:07;;;;;;;7.05;6.10;;;;;;;24.53;51.68;101596.84;5026809;28;20060;-61
2023/10/04 01:51:34;;;;;;;6.18;5.57;;;;;;;24.53;51.59;101601.41;5028747;28;20049;-61
2023/10/04 01:54:04;;;;;;;5.82;5.22;;;;;;;24.52;51.72;101606.00;5028240;28;20057;-61
2023/10/04 01:56:32;;;;;;;6.43;5.82;;;;;;;24.52;51.81;101606.00;5030109;28;20053;-61
2023/10/04 01:59:01;;;;;;;6.45;5.85;;;;;;;24.52;51.83;101606.00;5029599;28;20061;-61
2023/10/04 02:01:29;;;;;;;6.28;5.68;;;;;;;24.52;51.74;101608.69;5031529;28;20065;-61
2023/10/04 02:03:59;;;;;;;8.30;6.13;;;;;;;24.52;51.72;101602.44;5028181;28;20061;-61
2023/10/04 02:06:28;;;;;;;6.47;5.40;;;;;;;24.52;51.50;101605.13;5030702;28;20053;-61
2023/10/04 02:08:55;;;;;;;6.03;5.43;;;;;;;24.51;51.57;101606.13;5030740;28;20496;-65
2023/10/04 02:11:23;;;;;;;7.25;6.18;;;;;;;24.51;51.81;101601.59;5027461;28;20046;-65
2023/10/04 02:13:52;;;;;;;7.88;5.57;;;;;;;24.51;51.68;101595.28;5032197;28;20057;-65
2023/10/04 02:16:20;;;;;;;7.93;6.25;;;;;;;24.50;51.39;101599.00;5030941;28;20050;-65
2023/10/04 02:18:48;;;;;;;6.97;5.90;;;;;;;24.50;51.58;101602.56;5029529;28;20057;-61
2023/10/04 02:21:17;;;;;;;7.15;6.10;;;;;;;24.51;51.78;101598.00;5030082;28;20062;-61
2023/10/04 02:23:45;;;;;;;8.07;5.40;;;;;;;24.49;51.44;101595.44;5029935;28;20049;-61
2023/10/04 02:26:12;;;;;;;5.78;5.18;;;;;;;24.50;51.58;101597.16;5028661;28;20049;-61
2023/10/04 02:28:41;;;;;;;6.97;5.57;;;;;;;24.50;51.44;101593.59;5030689;28;20052;-65
2023/10/04 02:31:08;;;;;;;6.22;5.63;;;;;;;24.49;51.45;101589.19;5026266;28;20512;-65
2023/10/04 02:33:38;;;;;;;6.13;5.47;;;;;;;24.49;51.41;101595.44;5028810;28;20049;-65
2023/10/04 02:36:07;;;;;;;6.97;6.25;;;;;;;24.48;51.37;101599.16;5030565;28;20042;-65
2023/10/04 02:38:36;;;;;;;5.95;5.30;;;;;;;24.48;51.60;101593.75;5028056;28;20050;-64
2023/10/04 02:41:05;;;;;;;6.60;5.72;;;;;;;24.49;51.54;101602.72;5025281;28;20045;-61
2023/10/04 02:43:33;;;;;;;7.05;5.63;;;;;;;24.48;51.43;101596.47;5029444;28;20049;-61
2023/10/04 02:46:01;;;;;;;6.18;5.57;;;;;;;24.48;51.55;101599.16;5028315;28;20076;-61
2023/10/04 02:48:31;;;;;;;6.03;5.40;;;;;;;24.48;51.21;101593.75;5020259;28;20038;-63
2023/10/04 02:51:01;;;;;;;6.10;5.20;;;;;;;24.48;51.35;101595.59;5032227;28;20398;-65
2023/10/04 02:53:29;;;;;;;6.30;5.65;;;;;;;24.48;51.59;101593.75;5033195;28;20050;-65
2023/10/04 02:55:57;;;;;;;6.75;5.68;;;;;;;24.48;51.14;101595.59;5033384;28;20056;-65
2023/10/04 02:58:34;;;;;;;5.90;5.32;;;;;;;24.48;51.55;101592.91;5032264;28;20048;-61
2023/10/04 03:01:03;;;;;;;5.72;4.85;;;;;;;24.47;51.13;101594.75;5033304;28;20049;-65
2023/10/04 03:03:31;;;;;;;6.10;5.50;;;;;;;24.47;51.20;101586.63;5033106;28;20057;-64
2023/10/04 03:06:04;;;;;;;7.65;5.43;;;;;;;24.47;51.56;101599.28;5033087;28;20049;-65
2023/10/04 03:08:33;;;;;;;5.90;5.38;;;;;;;24.48;51.32;101595.59;5028628;28;20049;-61
2023/10/04 03:11:04;;;;;;;6.32;5.22;;;;;;;24.46;51.15;101593.03;5023245;28;20053;-61
2023/10/04 03:13:34;;;;;;;8.00;5.60;;;;;;;24.47;51.08;101591.16;5032344;28;20053;-61
2023/10/04 03:16:04;;;;;;;7.18;4.95;;;;;;;24.46;51.06;101590.31;5032759;28;20061;-61
2023/10/04 03:18:33;;;;;;;6.20;5.60;;;;;;;24.46;51.34;101584.91;5032761;28;20053;-61
2023/10/04 03:23:42;;;;;;;6.30;5.70;;;;;;;24.46;51.37;101593.03;5032798;28;20057;-61
2023/10/04 03:26:19;;;;;;;5.85;5.22;;;;;;;24.45;51.28;101587.78;5028763;28;20053;-60
2023/10/04 03:28:54;;;;;;;5.75;5.15;;;;;;;24.45;51.34;101595.88;5032482;28;20407;-61
2023/10/04 03:31:26;;;;;;;6.20;5.18;;;;;;;24.46;50.98;101594.88;5033720;28;20037;-61
2023/10/04 03:33:56;;;;;;;7.00;5.47;;;;;;;24.45;50.99;101604.00;5031620;28;20049;-61
2023/10/04 03:36:29;;;;;;;5.05;4.55;;;;;;;24.45;51.24;101607.56;5033202;28;20060;-61
2023/10/04 03:39:00;;;;;;;6.70;5.22;;;;;;;24.45;51.32;101602.16;5032631;28;20045;-61
2023/10/04 03:41:30;;;;;;;6.00;5.40;;;;;;;24.45;51.15;101604.88;5031987;28;20060;-61
2023/10/04 03:44:06;;;;;;;5.43;4.68;;;;;;;24.46;51.06;101605.72;5032619;28;20053;-61
2023/10/04 03:46:35;;;;;;;5.78;5.03;;;;;;;24.45;51.00;101606.72;5032266;28;20053;-61
2023/10/04 03:49:03;;;;;;;6.03;5.43;;;;;;;24.45;51.20;101610.28;5020181;28;20044;-65
2023/10/04 03:51:31;;;;;;;5.05;4.53;;;;;;;24.44;51.21;101614.00;5027654;28;20049;-65
2023/10/04 03:54:07;;;;;;;6.20;5.30;;;;;;;24.44;51.05;101608.56;5028318;28;20049;-65
2023/10/04 03:56:37;;;;;;;7.63;5.28;;;;;;;24.44;51.02;101602.31;5032238;28;20084;-65
2023/10/04 03:59:07;;;;;;;6.00;5.40;;;;;;;24.43;51.01;101606.88;5031787;28;20526;-64
2023/10/04 04:01:37;;;;;;;6.47;5.05;;;;;;;24.45;51.33;101612.13;5028003;28;20061;-65
2023/10/04 04:04:06;;;;;;;5.57;4.95;;;;;;;24.43;51.25;101604.16;5027963;28;20528;-65
2023/10/04 04:06:34;;;;;;;4.97;4.53;;;;;;;24.43;51.10;101606.88;5027932;28;20516;-65
2023/10/04 04:09:06;;;;;;;5.78;5.18;;;;;;;24.45;51.27;101606.72;5027951;28;20496;-57
2023/10/04 04:11:35;;;;;;;6.20;5.05;;;;;;;24.42;50.72;101619.53;5026253;28;20460;-57
2023/10/04 04:14:05;;;;;;;6.07;5.45;;;;;;;24.39;50.51;101627.97;5027167;28;20058;-57
2023/10/04 04:16:32;;;;;;;6.75;5.95;;;;;;;24.37;49.76;101621.78;5028172;28;20060;-57
2023/10/04 04:19:01;;;;;;;7.43;6.43;;;;;;;24.34;49.52;101619.38;5026219;28;20423;-58
2023/10/04 04:21:32;;;;;;;6.43;5.82;;;;;;;24.31;49.47;101621.53;5026481;28;20053;-57
2023/10/04 04:24:01;;;;;;;7.55;6.00;;;;;;;24.27;49.19;101628.25;5028844;28;20518;-57
2023/10/04 04:26:29;;;;;;;7.90;6.43;;;;;;;24.23;49.34;101621.41;5027234;28;20064;-57
2023/10/04 04:28:57;;;;;;;8.32;6.40;;;;;;;24.20;49.05;101627.13;5025722;28;20053;-57
2023/10/04 04:31:25;;;;;;;6.68;5.97;;;;;;;24.15;48.97;101636.50;5013929;28;20060;-57
2023/10/04 04:33:55;;;;;;;6.28;5.70;;;;;;;24.13;49.08;101633.09;5027896;28;20049;-57
2023/10/04 04:36:27;;;;;;;7.85;6.55;;;;;;;24.11;49.19;101634.25;5027380;28;20526;-57
2023/10/04 04:39:05;;;;;;;7.57;6.78;;;;;;;24.10;49.17;101640.63;5023592;28;20432;-57
2023/10/04 04:41:36;;;;;;;8.07;5.88;;;;;;;24.09;49.07;101645.19;5027354;28;20056;-57
2023/10/04 04:44:07;;;;;;;6.75;5.47;;;;;;;24.09;49.06;101644.34;5029005;28;20504;-57
2023/10/04 04:46:38;;;;;;;;;;;;;;;24.06;49.25;101644.63;5025903;28;20060;-57
2023/10/04 04:49:06;;;;;;;6.20;5.60;;;;;;;24.07;49.13;101647.19;5027433;28;20280;-57
2023/10/04 04:51:35;;;;;;;7.00;6.30;;;;;;;24.08;49.28;101650.75;5019788;28;20057;-57
2023/10/04 04:54:02;;;;;;;6.57;5.65;;;;;;;24.08;49.33;101653.47;5034240;28;20045;-57
2023/10/04 04:56:31;;;;;;;7.22;6.53;;;;;;;24.06;49.11;101650.88;5033469;28;20060;-57
2023/10/04 04:59:07;;;;;;;8.20;6.85;;;;;;;24.05;49.00;101648.34;5036086;28;20447;-57
2023/10/04 05:01:39;;;;;;;7.82;7.07;;;;;;;24.04;49.05;101644.78;5035172;28;20053;-56
2023/10/04 05:04:07;;;;;;;10.65;7.30;;;;;;;24.03;49.21;101653.91;5035482;28;20168;-57
2023/10/04 05:06:36;;;;;;;8.57;7.68;;;;;;;24.03;49.29;101653.91;5036422;28;20046;-58
2023/10/04 05:09:04;;;;;;;8.90;8.00;;;;;;;23.96;49.34;101652.75;5036347;28;20049;-58
2023/10/04 05:11:36;;;;;;;10.68;8.65;;;;;;;23.91;49.15;101653.19;5036286;28;20046;-57
2023/10/04 05:14:06;;;;;;;11.27;8.88;;;;;;;23.88;49.22;101652.59;5036512;28;20056;-57
2023/10/04 05:16:34;;;;;;;9.68;8.68;;;;;;;23.85;49.34;101661.84;5036284;28;20061;-57
2023/10/04 05:19:04;;;;;;;8.80;7.90;;;;;;;23.84;49.15;101665.56;5036152;28;20042;-57
2023/10/04 05:21:32;;;;;;;8.68;7.78;;;;;;;23.82;49.32;101672.09;5036686;28;20052;-57
2023/10/04 05:23:59;;;;;;;10.13;9.13;;;;;;;23.79;49.11;101678.66;5036050;28;20053;-58
2023/10/04 05:26:27;;;;;;;10.07;8.77;;;;;;;23.75;49.26;101676.38;5036365;28;20045;-58
2023/10/04 05:28:55;;;;;;;10.73;9.07;;;;;;;23.72;49.29;101674.78;5036656;28;20045;-58
2023/10/04 05:31:23;;;;;;;9.88;8.10;;;;;;;23.69;49.30;101683.19;5035992;28;20048;-57
2023/10/04 05:33:50;;;;;;;9.18;8.20;;;;;;;23.68;49.67;101687.72;5036269;28;20518;-57
2023/10/04 05:36:18;;;;;;;9.23;8.20;;;;;;;23.66;49.69;101678.94;5036076;28;20052;-57
2023/10/04 05:38:45;;;;;;;10.18;8.13;;;;;;;23.61;49.99;101686.53;5035906;28;20037;-58
2023/10/04 05:41:14;;;;;;;10.65;8.35;;;;;;;23.60;50.23;101684.00;5036280;28;20510;-58
2023/10/04 05:43:42;;;;;;;8.65;7.75;;;;;;;23.57;50.33;101684.25;5035828;28;20060;-58
2023/10/04 05:46:10;;;;;;;9.10;8.20;;;;;;;23.55;50.28;101687.13;5035860;28;20058;-57
2023/10/04 05:48:39;;;;;;;9.77;8.48;;;;;;;23.55;50.27;101691.66;5036015;28;20045;-57
2023/10/04 05:51:07;;;;;;;11.38;9.15;;;;;;;23.55;50.08;101699.78;5022261;28;20041;-58
2023/10/04 05:53:37;;;;;;;9.20;8.25;;;;;;;23.53;50.44;101697.19;5028401;28;20050;-58
2023/10/04 05:56:05;;;;;;;10.07;8.55;;;;;;;23.52;50.42;101703.59;5031622;28;20376;-57
2023/10/04 05:58:34;;;;;;;11.23;9.07;;;;;;;23.51;50.36;101706.47;5032140;28;20045;-57
2023/10/04 06:01:02;;;;;;;11.75;9.05;;;;;;;23.51;50.90;101706.47;5032301;28;20041;-57
2023/10/04 06:03:32;;;;;;;9.38;8.43;;;;;;;23.50;50.78;101708.31;5030539;28;20041;-57
2023/10/04 06:06:01;;;;;;;9.20;8.30;;;;;;;23.50;50.87;101702.91;5031210;28;20395;-57
2023/10/04 06:08:28;;;;;;;9.63;8.55;;;;;;;23.52;50.81;101706.31;5032149;28;20049;-57
2023/10/04 06:10:56;;;;;;;11.30;9.30;;;;;;;23.54;50.64;101709.75;5032556;28;20148;-57
2023/10/04 06:13:25;;;;;;;10.13;9.10;;;;;;;23.55;50.31;101719.56;5029499;28;20049;-57
2023/10/04 06:15:55;;;;;;;10.15;9.05;;;;;;;23.55;50.41;101718.69;5022412;28;20411;-57
2023/10/04 06:18:29;;;;;;;10.57;9.50;;;;;;;23.53;50.45;101721.53;5032261;28;20054;-57
2023/10/04 06:20:59;;;;;;;9.93;9.00;;;;;;;23.50;50.47;101720.94;5031298;28;20053;-58
2023/10/04 06:23:30;;;;;;;9.77;8.70;;;;;;;23.45;50.59;101733.00;5029319;28;20050;-57
2023/10/04 06:25:59;;;;;;;10.63;9.52;;;;;;;23.44;50.75;101730.47;5032046;28;20056;-58
2023/10/04 06:28:27;;;;;;;10.73;8.73;;;;;;;23.42;50.69;101740.56;5031835;28;20053;-57
2023/10/04 06:30:54;;;;;;;10.77;8.75;;;;;;;23.44;50.88;101746.69;5031403;28;20046;-59
2023/10/04 06:33:21;;;;;;;9.73;8.38;;;;;;;23.45;51.06;101748.38;5030169;28;20065;-58
2023/10/04 06:35:49;;;;;;;11.00;9.52;;;;;;;23.49;51.19;101746.25;5033205;28;20515;-58
2023/10/04 06:38:16;;;;;;;11.40;9.02;;;;;;;23.49;51.09;101749.81;5031463;28;20056;-58
2023/10/04 06:40:44;;;;;;;10.98;8.60;;;;;;;23.51;51.16;101747.00;5031804;28;20044;-58
2023/10/04 06:43:14;;;;;;;12.40;9.63;;;;;;;23.52;50.96;101746.84;5031391;28;20061;-58
2023/10/04 06:45:42;;;;;;;11.00;9.50;;;;;;;23.57;51.26;101747.28;5031413;28;20046;-58
2023/10/04 06:48:10;;;;;;;13.45;9.43;;;;;;;23.62;51.23;101753.16;5029635;28;20057;-57
2023/10/04 06:50:38;;;;;;;11.32;8.50;;;;;;;23.67;50.93;101756.31;5029570;28;20048;-57
2023/10/04 06:53:09;;;;;;;12.15;9.30;;;;;;;23.73;50.95;101748.66;5023538;28;20041;-57
2023/10/04 06:55:37;;;;;;;15.40;8.82;;;;;;;23.75;50.79;101747.53;5031288;28;20049;-57
2023/10/04 06:58:06;;;;;;;20.63;10.65;;;;;;;23.81;50.96;101762.31;5031532;28;20053;-57
2023/10/04 07:00:37;;;;;;;19.42;10.60;;;;;;;23.84;50.89;101764.75;5031118;28;20042;-57
2023/10/04 07:03:05;;;;;;;16.52;10.65;;;;;;;23.85;51.00;101775.41;5023138;28;20056;-57
2023/10/04 07:05:36;;;;;;;16.23;10.45;;;;;;;23.86;50.81;101777.16;5034918;28;20052;-57
2023/10/04 07:08:11;;;;;;;12.13;10.05;;;;;;;23.87;50.86;101778.00;5034301;28;20057;-57
2023/10/04 07:10:39;;;;;;;12.73;10.25;;;;;;;23.89;50.97;101767.88;5032196;28;20038;-58
2023/10/04 07:13:06;;;;;;;11.50;9.40;;;;;;;23.91;50.83;101780.28;5034715;28;20046;-58
2023/10/04 07:15:41;;;;;;;10.45;8.63;;;;;;;23.92;50.58;101779.28;5034071;28;20423;-58
2023/10/04 07:18:11;;;;;;;9.50;8.50;;;;;;;23.93;50.62;101783.69;5031785;28;20076;-58
2023/10/04 07:20:40;;;;;;;11.52;8.25;;;;;;;23.95;50.53;101802.50;5034313;28;20049;-62
2023/10/04 07:23:10;;;;;;;9.02;7.35;;;;;;;23.97;50.57;101797.81;5033917;28;20041;-56
2023/10/04 07:25:47;;;;;;;12.02;7.65;;;;;;;24.00;50.51;101805.66;5033952;28;20495;-56
2023/10/04 07:28:14;;;;;;;9.77;7.25;;;;;;;24.03;50.32;101807.22;5033843;28;20042;-56
2023/10/04 07:30:42;;;;;;;11.80;6.60;;;;;;;24.01;50.44;101807.34;5034141;28;20411;-57
2023/10/04 07:33:10;;;;;;;10.57;6.43;;;;;;;24.04;50.19;101815.19;5033654;28;20495;-57
2023/10/04 07:35:37;;;;;;;7.53;6.10;;;;;;;24.05;50.36;101825.00;5033735;28;20052;-57
2023/10/04 07:38:05;;;;;;;7.45;5.68;;;;;;;24.04;50.35;101827.88;5033653;28;20399;-57
2023/10/04 07:40:35;;;;;;;7.07;5.88;;;;;;;24.06;50.28;101831.28;5033796;28;20399;-56
2023/10/04 07:43:03;;;;;;;9.68;8.13;;;;;;;23.96;50.35;101825.84;5033516;28;20048;-56
2023/10/04 07:45:31;;;;;;;7.70;6.78;;;;;;;23.87;50.35;101827.53;5032633;28;20049;-56
2023/10/04 07:48:01;;;;;;;9.05;6.80;;;;;;;23.80;50.66;101831.78;5030783;28;20053;-56
2023/10/04 07:50:29;;;;;;;13.30;8.13;;;;;;;23.71;50.69;101838.00;5033349;28;20045;-57
2023/10/04 07:53:04;;;;;;;7.97;7.10;;;;;;;23.64;50.97;101837.66;5023832;28;20046;-64
2023/10/04 07:55:33;;;;;;;8.52;7.15;;;;;;;23.61;50.64;101837.06;5026884;28;20050;-64
2023/10/04 07:58:05;;;;;;;7.55;6.60;;;;;;;23.57;50.76;101833.78;5030145;28;20069;-63
2023/10/04 08:00:37;;;;;;;8.93;7.55;;;;;;;23.56;50.90;101833.94;5035169;28;20500;-62
2023/10/04 08:03:06;;;;;;;10.80;7.93;;;;;;;23.55;50.85;101843.88;5032239;28;20049;-61
2023/10/04 08:05:35;;;;;;;9.75;7.55;;;;;;;23.54;51.02;101842.19;5029923;28;20049;-63
2023/10/04 08:08:04;;;;;;;10.02;8.02;;;;;;;23.50;50.95;101846.16;5030933;28;20037;-63
2023/10/04 08:10:35;;;;;;;11.95;8.55;;;;;;;23.48;51.01;101844.56;5039157;28;20045;-63
2023/10/04 08:13:04;;;;;;;9.25;8.05;;;;;;;23.46;50.95;101842.00;5041173;28;20518;-61
2023/10/04 08:15:35;;;;;;;9.48;7.97;;;;;;;23.48;50.83;101841.84;5038099;28;20400;-63
2023/10/04 08:18:04;;;;;;;11.52;8.32;;;;;;;23.51;51.42;101839.75;5042758;28;20049;-63
2023/10/04 08:20:32;;;;;;;11.38;9.35;;;;;;;23.57;51.46;101846.44;5042538;28;20056;-65
2023/10/04 08:23:04;;;;;;;9.82;8.13;;;;;;;23.59;51.31;101849.88;5020542;28;20054;-65
2023/10/04 08:25:35;;;;;;;10.32;7.88;;;;;;;23.57;51.42;101862.66;5037625;28;20061;-65
2023/10/04 08:28:06;;;;;;;9.93;8.75;;;;;;;23.56;51.34;101856.41;5041293;28;20037;-65
2023/10/04 08:30:38;;;;;;;10.57;8.57;;;;;;;23.54;51.52;101854.84;5040151;28;20052;-65
2023/10/04 08:33:06;;;;;;;13.48;11.00;;;;;;;23.50;51.68;101861.47;5035087;28;20053;-65
2023/10/04 08:35:36;;;;;;;12.73;9.88;;;;;;;23.51;51.86;101865.91;5037498;28;20041;-65
2023/10/04 08:38:05;;;;;;;11.85;10.13;;;;;;;23.52;51.99;101875.72;5040214;28;20499;-61
2023/10/04 08:40:42;;;;;;;11.45;10.20;;;;;;;23.53;52.01;101866.63;5036277;28;20049;-58
2023/10/04 08:43:09;;;;;;;10.65;9.55;;;;;;;23.53;52.01;101872.03;5034613;28;20046;-58
2023/10/04 08:45:37;;;;;;;10.20;9.07;;;;;;;23.54;52.48;101880.03;5035292;28;20053;-58
2023/10/04 08:48:05;;;;;;;10.85;9.70;;;;;;;23.54;52.60;101881.88;5037675;28;20045;-60
2023/10/04 08:50:38;;;;;;;11.60;9.63;;;;;;;23.57;52.74;101870.75;5033787;28;20038;-60
2023/10/04 08:53:33;;;;;;;14.43;11.07;;;;;;;23.57;52.77;101879.72;5030365;28;20049;-60
2023/10/04 08:56:13;;;;;;;14.25;11.60;;;;;;;23.59;52.82;101869.66;5027538;28;20045;-60
2023/10/04 08:58:40;;;;;;;12.93;11.60;;;;;;;23.60;52.91;101865.94;5036025;28;20057;-63
2023/10/04 09:01:10;;;;;;;12.23;10.93;;;;;;;23.63;53.42;101860.28;5035122;28;20053;-65
2023/10/04 09:03:42;;;;;;;13.93;12.10;;;;;;;23.63;53.44;101863.00;5036454;28;20072;-63
2023/10/04 09:06:11;;;;;;;15.13;13.40;;;;;;;23.65;53.58;101863.72;5035569;28;20388;-63
2023/10/04 09:08:43;;;;;;;15.70;12.75;;;;;;;23.67;53.92;101864.47;5033630;28;20057;-61
2023/10/04 09:11:12;;;;;;;15.60;13.95;;;;;;;23.67;54.00;101874.44;5034846;28;20590;-60
2023/10/04 09:13:47;;;;;;;15.38;13.90;;;;;;;23.67;54.47;101869.03;5035699;28;20045;-61
2023/10/04 09:16:29;;;;;;;14.98;13.10;;;;;;;23.71;54.18;101873.16;5031425;28;20053;-61
2023/10/04 09:19:17;;;;;;;14.77;12.98;;;;;;;23.73;54.25;101868.47;5025645;28;20060;-61
2023/10/04 09:21:46;;;;;;;13.88;11.80;;;;;;;23.76;54.20;101867.34;5033251;28;20046;-61
2023/10/04 09:24:15;;;;;;;13.00;11.25;;;;;;;23.80;53.98;101860.66;5031918;28;20045;-61
2023/10/04 09:26:54;;;;;;;13.57;11.07;;;;;;;23.84;53.88;101871.06;5034927;28;20053;-60
2023/10/04 09:29:36;;;;;;;11.38;10.27;;;;;;;23.85;53.61;101870.06;5031471;28;20042;-66
2023/10/04 09:32:05;;;;;;;10.85;9.38;;;;;;;23.89;53.66;101870.66;5033002;28;20036;-66
2023/10/04 09:34:33;;;;;;;12.35;10.27;;;;;;;23.90;53.32;101865.13;5023996;28;20050;-66
2023/10/04 09:37:00;;;;;;;10.52;9.00;;;;;;;23.92;53.24;101873.09;5032427;28;20057;-66
2023/10/04 09:39:31;;;;;;;10.43;8.75;;;;;;;23.95;53.18;101855.75;5033218;28;20057;-66
2023/10/04 09:42:03;;;;;;;9.52;8.48;;;;;;;23.96;53.35;101862.88;5036692;28;20408;-66
2023/10/04 09:44:34;;;;;;;10.80;9.60;;;;;;;23.97;53.27;101857.31;5036037;28;20053;-66
2023/10/04 09:47:02;;;;;;;10.07;9.07;;;;;;;23.99;53.36;101849.94;5035576;28;20050;-64
2023/10/04 09:49:31;;;;;;;10.40;8.43;;;;;;;24.02;52.91;101859.59;5036034;28;20049;-61
2023/10/04 09:52:08;;;;;;;10.05;8.27;;;;;;;24.03;53.16;101845.94;5035527;28;20056;-61
2023/10/04 09:54:36;;;;;;;9.82;8.52;;;;;;;24.04;52.93;101842.25;5028937;28;20042;-61
2023/10/04 09:57:09;;;;;;;10.00;8.18;;;;;;;24.05;53.15;101838.53;5030498;28;20045;-61
2023/10/04 09:59:38;;;;;;;10.40;9.30;;;;;;;24.06;53.29;101839.38;5037897;28;20053;-67
2023/10/04 10:02:11;;;;;;;10.05;8.27;;;;;;;24.06;52.94;101845.66;5023530;28;20396;-66
2023/10/04 10:04:43;;;;;;;10.00;8.27;;;;;;;24.07;53.00;101833.84;5034250;28;20049;-66
2023/10/04 10:07:16;;;;;;;11.30;9.67;;;;;;;24.07;52.90;101844.69;5033624;28;20037;-66
2023/10/04 10:10:04;;;;;;;10.05;8.07;;;;;;;24.08;53.16;101838.25;5042296;28;20057;-61
2023/10/04 10:12:43;;;;;;;10.02;9.02;;;;;;;24.08;53.23;101830.16;5045323;28;20071;-61
2023/10/04 10:15:14;;;;;;;9.00;8.07;;;;;;;24.09;53.48;101831.84;5041773;28;20045;-61
2023/10/04 10:17:43;;;;;;;9.75;8.75;;;;;;;24.09;53.02;101837.25;5042790;28;20496;-61
2023/10/04 10:20:12;;;;;;;9.68;8.25;;;;;;;24.10;53.27;101836.25;5043812;28;20049;-66
2023/10/04 10:23:02;;;;;;;9.75;8.75;;;;;;;24.11;53.05;101839.84;5043428;28;20049;-66
2023/10/04 10:25:33;;;;;;;10.18;8.40;;;;;;;24.10;53.00;101838.97;5039662;28;20050;-66
2023/10/04 10:28:02;;;;;;;9.93;8.32;;;;;;;24.12;53.19;101836.13;5043778;28;20052;-67
2023/10/04 10:30:34;;;;;;;8.23;7.35;;;;;;;24.12;53.18;101837.00;5042214;28;20514;-67
2023/10/04 10:33:05;;;;;;;8.48;7.68;;;;;;;24.12;53.26;101842.41;5039750;28;20037;-66
2023/10/04 10:35:58;;;;;;;8.77;7.88;;;;;;;24.13;53.17;101849.50;5034702;28;20058;-66
2023/10/04 10:38:29;;;;;;;9.27;8.38;;;;;;;24.13;53.25;101844.09;5042776;28;20446;-66
2023/10/04 10:40:56;;;;;;;9.57;8.23;;;;;;;24.13;52.92;101841.41;5040525;28;20396;-66
2023/10/04 10:43:24;;;;;;;9.52;8.65;;;;;;;24.15;53.11;101842.13;5039906;28;20041;-66
2023/10/04 10:45:51;;;;;;;9.05;7.70;;;;;;;24.15;52.99;101839.44;5041715;28;20043;-66
2023/10/04 10:48:31;;;;;;;8.63;7.72;;;;;;;24.16;53.24;101840.28;5041165;28;20040;-66
2023/10/04 10:51:00;;;;;;;11.18;8.65;;;;;;;24.15;53.29;101850.25;5036571;28;20480;-66
2023/10/04 10:53:27;;;;;;;8.90;7.75;;;;;;;24.16;53.45;101849.25;5038285;28;20060;-66
2023/10/04 10:55:55;;;;;;;9.05;8.15;;;;;;;24.16;53.26;101845.69;5026207;28;20068;-66
2023/10/04 10:58:22;;;;;;;9.10;8.20;;;;;;;24.17;53.43;101842.84;5033044;28;20048;-66
2023/10/04 11:00:49;;;;;;;10.35;9.35;;;;;;;24.16;53.56;101845.69;5036989;28;20419;-66
2023/10/04 11:03:18;;;;;;;9.50;8.55;;;;;;;24.17;53.50;101844.69;5036752;28;20510;-66
2023/10/04 11:05:46;;;;;;;8.57;7.70;;;;;;;24.18;53.33;101849.97;5038871;28;20041;-66
2023/10/04 11:08:13;;;;;;;10.30;9.02;;;;;;;24.18;53.52;101849.09;5032018;28;20041;-66
2023/10/04 11:10:41;;;;;;;11.20;8.35;;;;;;;24.18;53.36;101844.56;5033984;28;20041;-61
2023/10/04 11:13:14;;;;;;;11.05;9.50;;;;;;;24.18;53.43;101840.97;5035448;28;20046;-61
2023/10/04 11:15:43;;;;;;;9.45;8.55;;;;;;;24.20;53.80;101838.16;5036242;28;20056;-61
2023/10/04 11:18:13;;;;;;;10.13;9.13;;;;;;;24.20;53.60;101833.59;5034171;28;20053;-61
2023/10/04 11:20:41;;;;;;;8.48;7.68;;;;;;;24.20;53.66;101828.19;5033808;28;20485;-66
2023/10/04 11:23:10;;;;;;;10.45;8.75;;;;;;;24.20;53.86;101822.78;5033908;28;20049;-66
2023/10/04 11:25:38;;;;;;;9.65;8.68;;;;;;;24.18;53.67;101817.50;5038308;28;20049;-67
2023/10/04 11:28:07;;;;;;;9.05;8.10;;;;;;;24.20;53.59;101819.22;5038940;28;20045;-66
2023/10/04 11:30:35;;;;;;;9.60;8.65;;;;;;;24.20;53.66;101811.94;5030076;28;20045;-66
2023/10/04 11:33:03;;;;;;;9.07;8.15;;;;;;;24.21;53.65;101810.94;5035880;28;20045;-66
2023/10/04 11:35:34;;;;;;;9.63;8.63;;;;;;;24.21;53.56;101804.69;5034438;28;20514;-66
2023/10/04 11:38:05;;;;;;;8.88;8.00;;;;;;;24.21;53.57;101792.00;5036565;28;20048;-66